sensor_id;sensor_type;location;lat;lon;timestamp;temperature;humidity
41953;DHT22;63613;28.200;112.870;2024-03-22T00:00:51;16.70;66.80
41953;DHT22;63613;28.200;112.870;2024-03-22T00:03:19;16.60;66.80
41953;DHT22;63613;28.200;112.870;2024-03-22T00:05:48;16.70;66.80
41953;DHT22;63613;28.200;112.870;2024-03-22T00:08:18;16.70;66.80
41953;DHT22;63613;28.200;112.870;2024-03-22T00:10:47;16.70;66.80
41953;DHT22;63613;28.200;112.870;2024-03-22T00:13:16;16.70;66.80
41953;DHT22;63613;28.200;112.870;2024-03-22T00:15:45;16.70;66.80
41953;DHT22;63613;28.200;112.870;2024-03-22T00:18:14;16.80;66.80
41953;DHT22;63613;28.200;112.870;2024-03-22T00:20:43;16.80;66.80
41953;DHT22;63613;28.200;112.870;2024-03-22T00:23:12;16.80;66.80
41953;DHT22;63613;28.200;112.870;2024-03-22T00:25:41;16.80;66.80
41953;DHT22;63613;28.200;112.870;2024-03-22T00:28:10;16.80;66.80
41953;DHT22;63613;28.200;112.870;2024-03-22T00:30:38;16.80;66.80
41953;DHT22;63613;28.200;112.870;2024-03-22T00:33:08;16.80;66.80
41953;DHT22;63613;28.200;112.870;2024-03-22T00:35:37;16.80;66.80
41953;DHT22;63613;28.200;112.870;2024-03-22T00:38:05;16.80;66.80
41953;DHT22;63613;28.200;112.870;2024-03-22T00:40:34;16.80;66.80
41953;DHT22;63613;28.200;112.870;2024-03-22T00:43:03;16.80;66.80
41953;DHT22;63613;28.200;112.870;2024-03-22T00:45:32;16.80;66.80
41953;DHT22;63613;28.200;112.870;2024-03-22T00:48:01;16.80;66.80
41953;DHT22;63613;28.200;112.870;2024-03-22T00:50:30;16.80;66.80
41953;DHT22;63613;28.200;112.870;2024-03-22T00:52:59;16.80;66.80
41953;DHT22;63613;28.200;112.870;2024-03-22T00:55:30;16.80;66.90
41953;DHT22;63613;28.200;112.870;2024-03-22T00:58:00;16.80;66.90
41953;DHT22;63613;28.200;112.870;2024-03-22T01:00:29;16.80;66.80
41953;DHT22;63613;28.200;112.870;2024-03-22T01:02:58;16.80;66.80
41953;DHT22;63613;28.200;112.870;2024-03-22T01:05:27;16.80;66.90
41953;DHT22;63613;28.200;112.870;2024-03-22T01:07:55;16.80;66.90
41953;DHT22;63613;28.200;112.870;2024-03-22T01:10:25;16.80;66.90
41953;DHT22;63613;28.200;112.870;2024-03-22T01:12:54;16.80;67.00
41953;DHT22;63613;28.200;112.870;2024-03-22T01:15:24;16.80;67.00
41953;DHT22;63613;28.200;112.870;2024-03-22T01:17:53;16.80;67.00
41953;DHT22;63613;28.200;112.870;2024-03-22T01:20:22;16.90;67.10
41953;DHT22;63613;28.200;112.870;2024-03-22T01:22:52;16.90;67.10
41953;DHT22;63613;28.200;112.870;2024-03-22T01:25:20;16.80;67.30
41953;DHT22;63613;28.200;112.870;2024-03-22T01:27:49;16.90;67.30
41953;DHT22;63613;28.200;112.870;2024-03-22T01:30:18;16.90;67.50
41953;DHT22;63613;28.200;112.870;2024-03-22T01:32:47;16.90;67.70
41953;DHT22;63613;28.200;112.870;2024-03-22T01:35:17;17.00;68.00
41953;DHT22;63613;28.200;112.870;2024-03-22T01:37:45;17.10;68.20
41953;DHT22;63613;28.200;112.870;2024-03-22T01:40:14;17.40;70.40
41953;DHT22;63613;28.200;112.870;2024-03-22T01:42:43;17.70;69.20
41953;DHT22;63613;28.200;112.870;2024-03-22T01:45:15;17.80;68.90
41953;DHT22;63613;28.200;112.870;2024-03-22T01:47:44;17.80;69.30
41953;DHT22;63613;28.200;112.870;2024-03-22T01:50:14;17.80;69.00
41953;DHT22;63613;28.200;112.870;2024-03-22T01:52:43;17.90;69.00
41953;DHT22;63613;28.200;112.870;2024-03-22T01:55:12;18.00;69.60
41953;DHT22;63613;28.200;112.870;2024-03-22T01:57:41;18.00;69.50
41953;DHT22;63613;28.200;112.870;2024-03-22T02:00:11;17.90;68.80
41953;DHT22;63613;28.200;112.870;2024-03-22T02:02:40;17.90;68.90
41953;DHT22;63613;28.200;112.870;2024-03-22T02:05:17;18.00;69.40
41953;DHT22;63613;28.200;112.870;2024-03-22T02:07:48;18.00;69.60
41953;DHT22;63613;28.200;112.870;2024-03-22T02:10:18;18.10;69.30
41953;DHT22;63613;28.200;112.870;2024-03-22T02:12:47;18.00;68.90
41953;DHT22;63613;28.200;112.870;2024-03-22T02:15:15;18.20;69.40
41953;DHT22;63613;28.200;112.870;2024-03-22T02:17:44;18.20;69.40
41953;DHT22;63613;28.200;112.870;2024-03-22T02:20:13;18.10;69.40
41953;DHT22;63613;28.200;112.870;2024-03-22T02:22:42;18.20;69.70
41953;DHT22;63613;28.200;112.870;2024-03-22T02:25:11;18.20;69.50
41953;DHT22;63613;28.200;112.870;2024-03-22T02:27:40;18.20;69.40
41953;DHT22;63613;28.200;112.870;2024-03-22T02:30:09;18.10;69.00
41953;DHT22;63613;28.200;112.870;2024-03-22T02:32:38;18.10;69.40
41953;DHT22;63613;28.200;112.870;2024-03-22T02:35:10;18.30;69.50
41953;DHT22;63613;28.200;112.870;2024-03-22T02:37:38;18.30;69.50
41953;DHT22;63613;28.200;112.870;2024-03-22T02:40:08;18.30;69.80
41953;DHT22;63613;28.200;112.870;2024-03-22T02:42:36;18.30;69.30
41953;DHT22;63613;28.200;112.870;2024-03-22T02:45:06;18.50;69.90
41953;DHT22;63613;28.200;112.870;2024-03-22T02:47:35;18.60;70.10
41953;DHT22;63613;28.200;112.870;2024-03-22T02:50:04;18.60;69.10
41953;DHT22;63613;28.200;112.870;2024-03-22T02:52:33;18.60;69.40
41953;DHT22;63613;28.200;112.870;2024-03-22T02:55:02;18.50;69.30
41953;DHT22;63613;28.200;112.870;2024-03-22T02:57:31;18.50;69.60
41953;DHT22;63613;28.200;112.870;2024-03-22T03:00:01;18.40;69.40
41953;DHT22;63613;28.200;112.870;2024-03-22T03:02:31;18.40;69.70
41953;DHT22;63613;28.200;112.870;2024-03-22T03:05:00;18.40;69.40
41953;DHT22;63613;28.200;112.870;2024-03-22T03:07:29;18.30;69.40
41953;DHT22;63613;28.200;112.870;2024-03-22T03:09:58;18.40;69.60
41953;DHT22;63613;28.200;112.870;2024-03-22T03:12:27;18.40;69.60
41953;DHT22;63613;28.200;112.870;2024-03-22T03:14:56;18.40;69.80
41953;DHT22;63613;28.200;112.870;2024-03-22T03:17:25;18.30;69.50
41953;DHT22;63613;28.200;112.870;2024-03-22T03:19:54;18.40;69.90
41953;DHT22;63613;28.200;112.870;2024-03-22T03:22:23;18.50;69.60
41953;DHT22;63613;28.200;112.870;2024-03-22T03:24:53;18.60;70.70
41953;DHT22;63613;28.200;112.870;2024-03-22T03:27:22;18.60;69.70
41953;DHT22;63613;28.200;112.870;2024-03-22T03:29:50;18.50;69.70
41953;DHT22;63613;28.200;112.870;2024-03-22T03:32:19;18.50;69.80
41953;DHT22;63613;28.200;112.870;2024-03-22T03:34:48;18.50;70.30
41953;DHT22;63613;28.200;112.870;2024-03-22T03:37:17;18.60;70.30
41953;DHT22;63613;28.200;112.870;2024-03-22T03:39:46;18.60;70.00
41953;DHT22;63613;28.200;112.870;2024-03-22T03:42:15;18.60;69.80
41953;DHT22;63613;28.200;112.870;2024-03-22T03:44:44;18.50;69.80
41953;DHT22;63613;28.200;112.870;2024-03-22T03:47:12;18.50;69.80
41953;DHT22;63613;28.200;112.870;2024-03-22T03:49:42;18.50;69.80
41953;DHT22;63613;28.200;112.870;2024-03-22T03:52:11;18.50;70.30
41953;DHT22;63613;28.200;112.870;2024-03-22T03:54:39;18.50;70.20
41953;DHT22;63613;28.200;112.870;2024-03-22T03:57:08;18.60;70.10
41953;DHT22;63613;28.200;112.870;2024-03-22T03:59:37;18.60;70.40
41953;DHT22;63613;28.200;112.870;2024-03-22T04:02:07;18.60;70.10
41953;DHT22;63613;28.200;112.870;2024-03-22T04:04:36;18.60;71.00
41953;DHT22;63613;28.200;112.870;2024-03-22T04:07:04;18.80;70.40
41953;DHT22;63613;28.200;112.870;2024-03-22T04:09:33;18.70;70.10
41953;DHT22;63613;28.200;112.870;2024-03-22T04:12:02;18.70;70.80
41953;DHT22;63613;28.200;112.870;2024-03-22T04:14:36;18.70;70.30
41953;DHT22;63613;28.200;112.870;2024-03-22T04:17:05;18.70;70.50
41953;DHT22;63613;28.200;112.870;2024-03-22T04:19:34;18.70;71.70
41953;DHT22;63613;28.200;112.870;2024-03-22T04:22:03;18.70;70.60
41953;DHT22;63613;28.200;112.870;2024-03-22T04:24:32;18.80;70.40
41953;DHT22;63613;28.200;112.870;2024-03-22T04:27:02;18.80;70.90
41953;DHT22;63613;28.200;112.870;2024-03-22T04:29:31;18.80;70.80
41953;DHT22;63613;28.200;112.870;2024-03-22T04:31:59;18.80;70.80
41953;DHT22;63613;28.200;112.870;2024-03-22T04:34:28;18.80;70.80
41953;DHT22;63613;28.200;112.870;2024-03-22T04:36:57;19.20;71.90
41953;DHT22;63613;28.200;112.870;2024-03-22T04:39:26;19.10;70.60
41953;DHT22;63613;28.200;112.870;2024-03-22T04:41:55;19.20;71.10
41953;DHT22;63613;28.200;112.870;2024-03-22T04:44:24;19.10;70.90
41953;DHT22;63613;28.200;112.870;2024-03-22T04:46:53;19.10;70.70
41953;DHT22;63613;28.200;112.870;2024-03-22T04:49:21;19.00;70.70
41953;DHT22;63613;28.200;112.870;2024-03-22T04:51:51;19.00;70.80
41953;DHT22;63613;28.200;112.870;2024-03-22T04:54:20;19.00;71.40
41953;DHT22;63613;28.200;112.870;2024-03-22T04:56:49;18.90;71.10
41953;DHT22;63613;28.200;112.870;2024-03-22T04:59:18;19.00;71.00
41953;DHT22;63613;28.200;112.870;2024-03-22T05:01:47;19.20;71.70
41953;DHT22;63613;28.200;112.870;2024-03-22T05:04:17;19.30;71.30
41953;DHT22;63613;28.200;112.870;2024-03-22T05:06:46;19.30;70.90
41953;DHT22;63613;28.200;112.870;2024-03-22T05:09:15;19.30;71.60
41953;DHT22;63613;28.200;112.870;2024-03-22T05:11:43;19.20;70.80
41953;DHT22;63613;28.200;112.870;2024-03-22T05:14:19;19.10;70.90
41953;DHT22;63613;28.200;112.870;2024-03-22T05:16:48;19.00;70.80
41953;DHT22;63613;28.200;112.870;2024-03-22T05:19:17;18.90;71.00
41953;DHT22;63613;28.200;112.870;2024-03-22T05:21:46;18.90;71.10
41953;DHT22;63613;28.200;112.870;2024-03-22T05:24:15;18.90;71.20
41953;DHT22;63613;28.200;112.870;2024-03-22T05:26:45;18.80;71.30
41953;DHT22;63613;28.200;112.870;2024-03-22T05:29:14;18.80;71.30
41953;DHT22;63613;28.200;112.870;2024-03-22T05:31:51;19.00;72.20
41953;DHT22;63613;28.200;112.870;2024-03-22T05:34:20;19.10;71.70
41953;DHT22;63613;28.200;112.870;2024-03-22T05:36:49;19.00;71.40
41953;DHT22;63613;28.200;112.870;2024-03-22T05:39:18;19.00;71.50
41953;DHT22;63613;28.200;112.870;2024-03-22T05:41:47;18.90;71.50
41953;DHT22;63613;28.200;112.870;2024-03-22T05:44:15;18.90;71.60
41953;DHT22;63613;28.200;112.870;2024-03-22T05:46:44;18.90;72.80
41953;DHT22;63613;28.200;112.870;2024-03-22T05:49:14;19.10;71.90
41953;DHT22;63613;28.200;112.870;2024-03-22T05:51:42;19.10;71.80
41953;DHT22;63613;28.200;112.870;2024-03-22T05:54:12;19.00;72.20
41953;DHT22;63613;28.200;112.870;2024-03-22T05:56:40;19.10;72.40
41953;DHT22;63613;28.200;112.870;2024-03-22T05:59:09;19.00;72.00
41953;DHT22;63613;28.200;112.870;2024-03-22T06:01:39;19.00;72.00
41953;DHT22;63613;28.200;112.870;2024-03-22T06:04:08;19.00;72.70
41953;DHT22;63613;28.200;112.870;2024-03-22T06:06:37;19.10;72.30
41953;DHT22;63613;28.200;112.870;2024-03-22T06:09:05;19.10;72.20
41953;DHT22;63613;28.200;112.870;2024-03-22T06:11:39;19.00;72.30
41953;DHT22;63613;28.200;112.870;2024-03-22T06:14:11;19.00;72.30
41953;DHT22;63613;28.200;112.870;2024-03-22T06:16:40;19.20;73.80
41953;DHT22;63613;28.200;112.870;2024-03-22T06:19:09;19.20;72.60
41953;DHT22;63613;28.200;112.870;2024-03-22T06:21:37;19.10;72.40
41953;DHT22;63613;28.200;112.870;2024-03-22T06:24:07;19.10;72.90
41953;DHT22;63613;28.200;112.870;2024-03-22T06:26:36;19.10;72.60
41953;DHT22;63613;28.200;112.870;2024-03-22T06:29:05;19.30;73.10
41953;DHT22;63613;28.200;112.870;2024-03-22T06:31:34;19.50;73.50
41953;DHT22;63613;28.200;112.870;2024-03-22T06:34:03;19.40;72.60
41953;DHT22;63613;28.200;112.870;2024-03-22T06:36:33;19.30;72.70
41953;DHT22;63613;28.200;112.870;2024-03-22T06:39:02;19.30;73.00
41953;DHT22;63613;28.200;112.870;2024-03-22T06:41:35;19.30;72.70
41953;DHT22;63613;28.200;112.870;2024-03-22T06:44:03;19.30;73.10
41953;DHT22;63613;28.200;112.870;2024-03-22T06:46:33;19.30;72.90
41953;DHT22;63613;28.200;112.870;2024-03-22T06:49:02;19.30;73.40
41953;DHT22;63613;28.200;112.870;2024-03-22T06:51:30;19.30;72.90
41953;DHT22;63613;28.200;112.870;2024-03-22T06:53:59;19.20;73.10
41953;DHT22;63613;28.200;112.870;2024-03-22T06:56:28;19.30;74.90
41953;DHT22;63613;28.200;112.870;2024-03-22T06:58:59;19.50;73.70
41953;DHT22;63613;28.200;112.870;2024-03-22T07:01:27;19.30;73.00
41953;DHT22;63613;28.200;112.870;2024-03-22T07:03:56;19.40;75.10
41953;DHT22;63613;28.200;112.870;2024-03-22T07:06:25;19.50;73.30
41953;DHT22;63613;28.200;112.870;2024-03-22T07:08:54;19.40;73.40
41953;DHT22;63613;28.200;112.870;2024-03-22T07:11:23;19.30;73.30
41953;DHT22;63613;28.200;112.870;2024-03-22T07:13:52;19.20;73.30
41953;DHT22;63613;28.200;112.870;2024-03-22T07:16:21;19.10;73.40
41953;DHT22;63613;28.200;112.870;2024-03-22T07:18:49;19.00;73.50
41953;DHT22;63613;28.200;112.870;2024-03-22T07:21:18;19.00;73.60
41953;DHT22;63613;28.200;112.870;2024-03-22T07:23:48;18.90;73.60
41953;DHT22;63613;28.200;112.870;2024-03-22T07:26:17;19.00;73.70
41953;DHT22;63613;28.200;112.870;2024-03-22T07:28:45;18.90;74.30
41953;DHT22;63613;28.200;112.870;2024-03-22T07:31:14;18.90;74.20
41953;DHT22;63613;28.200;112.870;2024-03-22T07:33:43;19.00;73.80
41953;DHT22;63613;28.200;112.870;2024-03-22T07:36:12;18.90;73.70
41953;DHT22;63613;28.200;112.870;2024-03-22T07:38:40;18.80;73.90
41953;DHT22;63613;28.200;112.870;2024-03-22T07:41:09;18.90;74.20
41953;DHT22;63613;28.200;112.870;2024-03-22T07:43:38;18.90;73.80
41953;DHT22;63613;28.200;112.870;2024-03-22T07:46:06;18.90;73.80
41953;DHT22;63613;28.200;112.870;2024-03-22T07:48:36;18.90;74.30
41953;DHT22;63613;28.200;112.870;2024-03-22T07:51:05;18.80;74.00
41953;DHT22;63613;28.200;112.870;2024-03-22T07:53:33;18.80;74.10
41953;DHT22;63613;28.200;112.870;2024-03-22T07:56:02;18.80;74.20
41953;DHT22;63613;28.200;112.870;2024-03-22T07:58:30;18.80;74.20
41953;DHT22;63613;28.200;112.870;2024-03-22T08:01:00;18.80;74.20
41953;DHT22;63613;28.200;112.870;2024-03-22T08:03:29;18.80;74.20
41953;DHT22;63613;28.200;112.870;2024-03-22T08:05:58;18.80;74.20
41953;DHT22;63613;28.200;112.870;2024-03-22T08:08:26;18.80;74.20
41953;DHT22;63613;28.200;112.870;2024-03-22T08:10:55;18.80;74.40
41953;DHT22;63613;28.200;112.870;2024-03-22T08:13:25;18.80;74.30
41953;DHT22;63613;28.200;112.870;2024-03-22T08:15:53;18.80;74.40
41953;DHT22;63613;28.200;112.870;2024-03-22T08:18:22;18.80;74.50
41953;DHT22;63613;28.200;112.870;2024-03-22T08:20:50;18.80;74.50
41953;DHT22;63613;28.200;112.870;2024-03-22T08:23:19;18.80;74.50
41953;DHT22;63613;28.200;112.870;2024-03-22T08:25:51;18.80;74.40
41953;DHT22;63613;28.200;112.870;2024-03-22T08:28:20;18.80;74.50
41953;DHT22;63613;28.200;112.870;2024-03-22T08:30:49;18.80;74.60
41953;DHT22;63613;28.200;112.870;2024-03-22T08:33:18;18.80;74.60
41953;DHT22;63613;28.200;112.870;2024-03-22T08:35:46;18.80;74.60
41953;DHT22;63613;28.200;112.870;2024-03-22T08:38:16;18.80;74.70
41953;DHT22;63613;28.200;112.870;2024-03-22T08:40:45;18.80;74.60
41953;DHT22;63613;28.200;112.870;2024-03-22T08:43:13;18.80;74.70
41953;DHT22;63613;28.200;112.870;2024-03-22T08:45:42;18.80;74.80
41953;DHT22;63613;28.200;112.870;2024-03-22T08:48:11;18.80;74.70
41953;DHT22;63613;28.200;112.870;2024-03-22T08:50:43;18.80;74.70
41953;DHT22;63613;28.200;112.870;2024-03-22T08:53:12;18.80;74.70
41953;DHT22;63613;28.200;112.870;2024-03-22T08:55:48;18.80;74.70
41953;DHT22;63613;28.200;112.870;2024-03-22T08:58:18;18.80;74.80
41953;DHT22;63613;28.200;112.870;2024-03-22T09:00:48;19.10;77.40
41953;DHT22;63613;28.200;112.870;2024-03-22T09:03:16;19.10;75.10
41953;DHT22;63613;28.200;112.870;2024-03-22T09:05:45;19.00;74.80
41953;DHT22;63613;28.200;112.870;2024-03-22T09:08:14;18.90;74.90
41953;DHT22;63613;28.200;112.870;2024-03-22T09:10:44;18.90;74.90
41953;DHT22;63613;28.200;112.870;2024-03-22T09:13:13;18.90;75.50
41953;DHT22;63613;28.200;112.870;2024-03-22T09:15:41;18.90;75.10
41953;DHT22;63613;28.200;112.870;2024-03-22T09:18:10;18.80;75.10
41953;DHT22;63613;28.200;112.870;2024-03-22T09:20:38;18.80;75.20
41953;DHT22;63613;28.200;112.870;2024-03-22T09:23:08;18.80;75.30
41953;DHT22;63613;28.200;112.870;2024-03-22T09:25:38;18.80;75.20
41953;DHT22;63613;28.200;112.870;2024-03-22T09:28:07;18.80;75.30
41953;DHT22;63613;28.200;112.870;2024-03-22T09:30:40;18.90;75.90
41953;DHT22;63613;28.200;112.870;2024-03-22T09:33:09;18.90;75.60
41953;DHT22;63613;28.200;112.870;2024-03-22T09:35:39;18.80;75.30
41953;DHT22;63613;28.200;112.870;2024-03-22T09:38:08;18.80;75.10
41953;DHT22;63613;28.200;112.870;2024-03-22T09:40:39;18.80;74.90
41953;DHT22;63613;28.200;112.870;2024-03-22T09:43:07;18.80;74.80
41953;DHT22;63613;28.200;112.870;2024-03-22T09:45:38;18.80;74.70
41953;DHT22;63613;28.200;112.870;2024-03-22T09:48:09;18.80;74.20
41953;DHT22;63613;28.200;112.870;2024-03-22T09:50:37;18.80;73.90
41953;DHT22;63613;28.200;112.870;2024-03-22T09:53:07;18.90;73.70
41953;DHT22;63613;28.200;112.870;2024-03-22T09:55:37;18.90;73.60
41953;DHT22;63613;28.200;112.870;2024-03-22T09:58:07;19.00;73.20
41953;DHT22;63613;28.200;112.870;2024-03-22T10:00:36;19.00;73.10
41953;DHT22;63613;28.200;112.870;2024-03-22T10:03:05;19.00;72.90
41953;DHT22;63613;28.200;112.870;2024-03-22T10:05:34;19.00;72.50
41953;DHT22;63613;28.200;112.870;2024-03-22T10:08:05;19.00;72.30
41953;DHT22;63613;28.200;112.870;2024-03-22T10:10:34;19.00;72.20
41953;DHT22;63613;28.200;112.870;2024-03-22T10:13:04;19.00;72.20
41953;DHT22;63613;28.200;112.870;2024-03-22T10:15:33;19.00;72.00
41953;DHT22;63613;28.200;112.870;2024-03-22T10:18:01;19.00;72.00
41953;DHT22;63613;28.200;112.870;2024-03-22T10:20:30;19.00;71.80
41953;DHT22;63613;28.200;112.870;2024-03-22T10:23:00;19.00;71.80
41953;DHT22;63613;28.200;112.870;2024-03-22T10:25:30;19.00;71.70
41953;DHT22;63613;28.200;112.870;2024-03-22T10:27:59;19.00;71.70
41953;DHT22;63613;28.200;112.870;2024-03-22T10:30:28;19.10;71.30
41953;DHT22;63613;28.200;112.870;2024-03-22T10:32:58;19.10;70.80
41953;DHT22;63613;28.200;112.870;2024-03-22T10:35:28;19.10;71.10
41953;DHT22;63613;28.200;112.870;2024-03-22T10:37:58;19.10;71.80
41953;DHT22;63613;28.200;112.870;2024-03-22T10:40:28;19.00;72.30
41953;DHT22;63613;28.200;112.870;2024-03-22T10:42:57;19.10;73.00
41953;DHT22;63613;28.200;112.870;2024-03-22T10:45:27;19.10;72.90
41953;DHT22;63613;28.200;112.870;2024-03-22T10:47:58;19.20;72.80
41953;DHT22;63613;28.200;112.870;2024-03-22T10:50:32;19.20;72.60
41953;DHT22;63613;28.200;112.870;2024-03-22T10:53:06;19.20;72.70
41953;DHT22;63613;28.200;112.870;2024-03-22T10:55:38;19.20;72.60
41953;DHT22;63613;28.200;112.870;2024-03-22T10:58:08;19.20;72.50
41953;DHT22;63613;28.200;112.870;2024-03-22T11:00:42;19.10;72.00
41953;DHT22;63613;28.200;112.870;2024-03-22T11:03:13;19.10;72.30
41953;DHT22;63613;28.200;112.870;2024-03-22T11:05:53;19.10;72.30
41953;DHT22;63613;28.200;112.870;2024-03-22T11:08:30;19.20;72.20
41953;DHT22;63613;28.200;112.870;2024-03-22T11:11:10;19.20;72.10
41953;DHT22;63613;28.200;112.870;2024-03-22T11:13:40;19.20;72.00
41953;DHT22;63613;28.200;112.870;2024-03-22T11:16:10;19.10;72.00
41953;DHT22;63613;28.200;112.870;2024-03-22T11:18:40;19.20;71.30
41953;DHT22;63613;28.200;112.870;2024-03-22T11:21:08;19.30;71.30
41953;DHT22;63613;28.200;112.870;2024-03-22T11:23:40;19.30;70.90
41953;DHT22;63613;28.200;112.870;2024-03-22T11:26:09;19.30;71.00
41953;DHT22;63613;28.200;112.870;2024-03-22T11:28:38;19.30;70.80
41953;DHT22;63613;28.200;112.870;2024-03-22T11:31:08;19.30;70.60
41953;DHT22;63613;28.200;112.870;2024-03-22T11:33:36;19.40;70.60
41953;DHT22;63613;28.200;112.870;2024-03-22T11:36:05;19.40;70.30
41953;DHT22;63613;28.200;112.870;2024-03-22T11:38:33;19.40;70.80
41953;DHT22;63613;28.200;112.870;2024-03-22T11:41:03;19.40;70.60
41953;DHT22;63613;28.200;112.870;2024-03-22T11:43:33;19.40;70.60
41953;DHT22;63613;28.200;112.870;2024-03-22T11:46:02;19.40;70.60
41953;DHT22;63613;28.200;112.870;2024-03-22T11:48:31;19.50;70.40
41953;DHT22;63613;28.200;112.870;2024-03-22T11:50:59;19.50;70.40
41953;DHT22;63613;28.200;112.870;2024-03-22T11:53:28;19.50;69.90
41953;DHT22;63613;28.200;112.870;2024-03-22T11:56:00;19.50;69.80
41953;DHT22;63613;28.200;112.870;2024-03-22T11:58:31;19.50;69.80
41953;DHT22;63613;28.200;112.870;2024-03-22T12:00:59;19.50;70.10
41953;DHT22;63613;28.200;112.870;2024-03-22T12:03:29;19.50;70.00
41953;DHT22;63613;28.200;112.870;2024-03-22T12:05:58;19.50;69.70
41953;DHT22;63613;28.200;112.870;2024-03-22T12:08:28;19.50;69.60
41953;DHT22;63613;28.200;112.870;2024-03-22T12:10:56;19.50;69.20
41953;DHT22;63613;28.200;112.870;2024-03-22T12:13:25;19.50;69.50
41953;DHT22;63613;28.200;112.870;2024-03-22T12:15:54;19.50;69.20
41953;DHT22;63613;28.200;112.870;2024-03-22T12:18:23;19.60;69.20
41953;DHT22;63613;28.200;112.870;2024-03-22T12:20:53;19.60;69.20
41953;DHT22;63613;28.200;112.870;2024-03-22T12:23:21;19.60;69.50
41953;DHT22;63613;28.200;112.870;2024-03-22T12:25:51;19.60;69.40
41953;DHT22;63613;28.200;112.870;2024-03-22T12:28:22;19.60;69.30
41953;DHT22;63613;28.200;112.870;2024-03-22T12:30:59;19.60;69.20
41953;DHT22;63613;28.200;112.870;2024-03-22T12:33:28;19.60;69.20
41953;DHT22;63613;28.200;112.870;2024-03-22T12:35:57;19.60;68.90
41953;DHT22;63613;28.200;112.870;2024-03-22T12:38:26;19.60;68.70
41953;DHT22;63613;28.200;112.870;2024-03-22T12:40:55;19.70;68.70
41953;DHT22;63613;28.200;112.870;2024-03-22T12:43:24;19.70;68.80
41953;DHT22;63613;28.200;112.870;2024-03-22T12:45:53;19.70;68.40
41953;DHT22;63613;28.200;112.870;2024-03-22T12:48:21;19.70;68.40
41953;DHT22;63613;28.200;112.870;2024-03-22T12:50:50;19.70;68.40
41953;DHT22;63613;28.200;112.870;2024-03-22T12:53:20;19.70;68.20
41953;DHT22;63613;28.200;112.870;2024-03-22T12:55:48;19.70;68.40
41953;DHT22;63613;28.200;112.870;2024-03-22T12:58:17;19.70;68.40
41953;DHT22;63613;28.200;112.870;2024-03-22T13:00:46;19.80;68.30
41953;DHT22;63613;28.200;112.870;2024-03-22T13:03:15;19.70;68.20
41953;DHT22;63613;28.200;112.870;2024-03-22T13:05:44;19.70;67.70
41953;DHT22;63613;28.200;112.870;2024-03-22T13:08:13;19.70;68.40
41953;DHT22;63613;28.200;112.870;2024-03-22T13:10:42;19.70;68.60
41953;DHT22;63613;28.200;112.870;2024-03-22T13:13:12;19.60;68.70
41953;DHT22;63613;28.200;112.870;2024-03-22T13:15:45;19.50;68.90
41953;DHT22;63613;28.200;112.870;2024-03-22T13:18:14;19.50;69.00
41953;DHT22;63613;28.200;112.870;2024-03-22T13:20:43;19.60;69.10
41953;DHT22;63613;28.200;112.870;2024-03-22T13:23:12;19.50;69.20
41953;DHT22;63613;28.200;112.870;2024-03-22T13:25:41;19.50;69.30
41953;DHT22;63613;28.200;112.870;2024-03-22T13:28:11;19.50;69.40
41953;DHT22;63613;28.200;112.870;2024-03-22T13:30:40;19.50;69.50
41953;DHT22;63613;28.200;112.870;2024-03-22T13:33:09;19.50;69.60
41953;DHT22;63613;28.200;112.870;2024-03-22T13:35:38;19.50;69.70
41953;DHT22;63613;28.200;112.870;2024-03-22T13:38:08;19.50;69.80
41953;DHT22;63613;28.200;112.870;2024-03-22T13:40:41;19.50;69.80
41953;DHT22;63613;28.200;112.870;2024-03-22T13:43:12;19.50;69.90
41953;DHT22;63613;28.200;112.870;2024-03-22T13:45:42;19.50;69.90
41953;DHT22;63613;28.200;112.870;2024-03-22T13:48:12;19.50;70.00
41953;DHT22;63613;28.200;112.870;2024-03-22T13:50:43;19.40;70.10
41953;DHT22;63613;28.200;112.870;2024-03-22T13:53:11;19.50;70.20
41953;DHT22;63613;28.200;112.870;2024-03-22T13:55:43;19.40;70.30
41953;DHT22;63613;28.200;112.870;2024-03-22T13:58:12;19.50;70.40
41953;DHT22;63613;28.200;112.870;2024-03-22T14:00:41;19.50;70.40
41953;DHT22;63613;28.200;112.870;2024-03-22T14:03:11;19.50;70.40
41953;DHT22;63613;28.200;112.870;2024-03-22T14:05:39;19.50;70.30
41953;DHT22;63613;28.200;112.870;2024-03-22T14:08:09;19.50;70.60
41953;DHT22;63613;28.200;112.870;2024-03-22T14:10:38;19.50;70.50
41953;DHT22;63613;28.200;112.870;2024-03-22T14:13:07;19.50;70.70
41953;DHT22;63613;28.200;112.870;2024-03-22T14:15:36;19.50;70.70
41953;DHT22;63613;28.200;112.870;2024-03-22T14:18:07;19.50;70.80
41953;DHT22;63613;28.200;112.870;2024-03-22T14:20:37;19.50;70.70
41953;DHT22;63613;28.200;112.870;2024-03-22T14:23:06;19.50;70.60
41953;DHT22;63613;28.200;112.870;2024-03-22T14:25:34;19.40;70.70
41953;DHT22;63613;28.200;112.870;2024-03-22T14:28:04;19.40;70.60
41953;DHT22;63613;28.200;112.870;2024-03-22T14:30:33;19.30;70.70
41953;DHT22;63613;28.200;112.870;2024-03-22T14:33:03;19.30;70.70
41953;DHT22;63613;28.200;112.870;2024-03-22T14:35:32;19.30;70.80
41953;DHT22;63613;28.200;112.870;2024-03-22T14:38:01;19.30;71.00
41953;DHT22;63613;28.200;112.870;2024-03-22T14:40:31;19.30;70.90
41953;DHT22;63613;28.200;112.870;2024-03-22T14:43:04;19.30;71.00
41953;DHT22;63613;28.200;112.870;2024-03-22T14:45:33;19.30;70.90
41953;DHT22;63613;28.200;112.870;2024-03-22T14:48:02;19.30;71.00
41953;DHT22;63613;28.200;112.870;2024-03-22T14:50:37;19.30;71.00
41953;DHT22;63613;28.200;112.870;2024-03-22T14:53:06;19.30;71.00
41953;DHT22;63613;28.200;112.870;2024-03-22T14:55:35;19.30;71.10
41953;DHT22;63613;28.200;112.870;2024-03-22T14:58:06;19.30;71.40
41953;DHT22;63613;28.200;112.870;2024-03-22T15:00:36;19.30;71.50
41953;DHT22;63613;28.200;112.870;2024-03-22T15:03:06;19.30;71.60
41953;DHT22;63613;28.200;112.870;2024-03-22T15:05:35;19.40;71.60
41953;DHT22;63613;28.200;112.870;2024-03-22T15:08:07;19.30;71.60
41953;DHT22;63613;28.200;112.870;2024-03-22T15:10:37;19.30;71.90
41953;DHT22;63613;28.200;112.870;2024-03-22T15:13:06;19.40;71.80
41953;DHT22;63613;28.200;112.870;2024-03-22T15:15:36;19.40;71.60